createdAt,value
2019-04-30T00:01:18.856Z,3.50
2019-04-30T00:03:50.560Z,3.40
2019-04-30T00:06:18.544Z,3.40
2019-04-30T00:08:46.947Z,3.30
2019-04-30T00:11:19.285Z,3.30
2019-04-30T00:13:45.825Z,3.20
2019-04-30T00:16:12.306Z,3.20
2019-04-30T00:18:54.861Z,3.20
2019-04-30T00:21:10.008Z,3.20
2019-04-30T00:23:37.878Z,3.10
2019-04-30T00:26:10.276Z,3.10
2019-04-30T00:28:35.391Z,3.10
2019-04-30T00:31:05.153Z,3.10
2019-04-30T00:33:31.699Z,3.10
2019-04-30T00:36:00.276Z,3.10
2019-04-30T00:38:29.589Z,3.10
2019-04-30T00:40:57.708Z,3.10
2019-04-30T00:43:25.628Z,3.00
2019-04-30T00:45:55.178Z,3.00
2019-04-30T00:48:27.869Z,3.10
2019-04-30T00:50:50.880Z,3.10
2019-04-30T00:53:19.199Z,3.10
2019-04-30T00:55:48.584Z,3.10
2019-04-30T00:58:17.758Z,3.10
2019-04-30T01:00:48.968Z,3.20
2019-04-30T01:03:20.445Z,3.20
2019-04-30T01:05:49.077Z,3.30
2019-04-30T01:08:21.128Z,3.30
2019-04-30T01:10:46.110Z,3.30
2019-04-30T01:13:14.410Z,3.30
2019-04-30T01:15:44.030Z,3.40
2019-04-30T01:18:11.488Z,3.40
2019-04-30T01:20:40.689Z,3.30
2019-04-30T01:23:11.304Z,3.30
2019-04-30T01:25:38.761Z,3.30
2019-04-30T01:28:05.420Z,3.30
2019-04-30T01:30:33.985Z,3.30
2019-04-30T01:33:02.304Z,3.30
2019-04-30T01:35:32.656Z,3.20
2019-04-30T01:37:59.566Z,3.20
2019-04-30T01:40:28.526Z,3.20
2019-04-30T01:42:55.771Z,3.20
2019-04-30T01:45:28.242Z,3.20
2019-04-30T01:47:52.742Z,3.10
2019-04-30T01:50:21.129Z,3.10
2019-04-30T01:52:53.347Z,3.10
2019-04-30T01:57:33.069Z,3.20
2019-04-30T02:00:36.621Z,3.30
2019-04-30T02:03:05.333Z,3.30
2019-04-30T02:05:33.691Z,3.30
2019-04-30T02:08:02.012Z,3.30
2019-04-30T02:10:30.594Z,3.40
2019-04-30T02:12:59.210Z,3.40
2019-04-30T02:15:29.135Z,3.40
2019-04-30T02:17:55.940Z,3.50
2019-04-30T02:20:24.376Z,3.40
2019-04-30T02:22:52.881Z,3.40
2019-04-30T02:25:21.265Z,3.40
2019-04-30T02:27:49.833Z,3.50
2019-04-30T02:30:20.853Z,3.50
2019-04-30T02:32:49.629Z,3.50
2019-04-30T02:35:20.626Z,3.50
2019-04-30T02:38:22.764Z,3.50
2019-04-30T02:40:51.401Z,3.50
2019-04-30T02:43:20.337Z,3.40
2019-04-30T02:45:49.816Z,3.40
2019-04-30T02:48:19.288Z,3.40
2019-04-30T02:50:45.625Z,3.30
2019-04-30T02:53:25.488Z,3.30
2019-04-30T02:55:53.901Z,3.20
2019-04-30T02:58:22.551Z,3.20
2019-04-30T03:00:51.775Z,3.20
2019-04-30T03:03:20.543Z,3.20
2019-04-30T03:05:49.713Z,3.20
2019-04-30T03:08:19.919Z,3.20
2019-04-30T03:10:45.524Z,3.20
2019-04-30T03:13:13.893Z,3.30
2019-04-30T03:15:42.437Z,3.30
2019-04-30T03:18:14.983Z,3.30
2019-04-30T03:21:19.192Z,3.30
2019-04-30T03:23:50.125Z,3.40
2019-04-30T03:26:15.728Z,3.40
2019-04-30T03:28:44.121Z,3.50
2019-04-30T03:31:12.829Z,3.50
2019-04-30T03:33:42.312Z,3.60
2019-04-30T03:36:12.304Z,3.60
2019-04-30T03:38:39.713Z,3.70
2019-04-30T03:41:09.637Z,3.80
2019-04-30T03:43:35.150Z,3.90
2019-04-30T03:46:03.846Z,4.00
2019-04-30T03:48:32.226Z,4.10
2019-04-30T03:51:01.238Z,4.10
2019-04-30T03:53:29.839Z,4.20
2019-04-30T03:55:57.221Z,4.30
2019-04-30T03:58:25.505Z,4.40
2019-04-30T04:01:01.177Z,4.50
2019-04-30T04:03:30.340Z,4.60
2019-04-30T04:06:04.067Z,4.60
2019-04-30T04:08:43.143Z,4.70
2019-04-30T04:11:12.245Z,4.80
2019-04-30T04:13:40.656Z,4.90
2019-04-30T04:16:09.659Z,5.00
2019-04-30T04:18:40.027Z,5.10
2019-04-30T04:21:11.550Z,5.20
2019-04-30T04:23:34.864Z,5.30
2019-04-30T04:26:03.234Z,5.40
2019-04-30T04:28:31.577Z,5.50
2019-04-30T04:31:00.259Z,5.70
2019-04-30T04:33:29.686Z,5.80
2019-04-30T04:35:59.578Z,5.90
2019-04-30T04:38:25.217Z,5.90
2019-04-30T04:40:53.523Z,6.00
2019-04-30T04:43:21.879Z,6.00
2019-04-30T04:45:50.307Z,6.00
2019-04-30T04:48:19.805Z,6.10
2019-04-30T04:50:49.508Z,6.10
2019-04-30T04:53:15.798Z,6.00
2019-04-30T04:55:44.147Z,6.00
2019-04-30T04:58:13.017Z,6.00
2019-04-30T05:00:40.927Z,5.90
2019-04-30T05:03:13.435Z,5.90
2019-04-30T05:05:42.004Z,6.00
2019-04-30T05:08:10.299Z,6.00
2019-04-30T05:10:39.190Z,5.90
2019-04-30T05:13:09.075Z,6.00
2019-04-30T05:15:35.660Z,6.00
2019-04-30T05:18:04.035Z,6.00
2019-04-30T05:20:32.395Z,6.00
2019-04-30T05:23:00.757Z,6.10
2019-04-30T05:25:29.571Z,6.20
2019-04-30T05:27:58.719Z,6.30
2019-04-30T05:30:25.830Z,6.30
2019-04-30T05:32:54.144Z,6.40
2019-04-30T05:35:22.521Z,6.40
2019-04-30T05:37:51.092Z,6.40
2019-04-30T05:40:19.579Z,6.40
2019-04-30T05:42:49.467Z,6.60
2019-04-30T05:45:16.355Z,6.70
2019-04-30T05:47:44.716Z,6.70
2019-04-30T05:50:13.445Z,6.80
2019-04-30T05:52:41.745Z,6.80
2019-04-30T05:55:10.082Z,7.00
2019-04-30T05:57:47.230Z,7.10
2019-04-30T06:00:07.170Z,7.30
2019-04-30T06:02:35.506Z,7.40
2019-04-30T06:05:03.920Z,7.40
2019-04-30T06:07:32.298Z,7.60
2019-04-30T06:10:06.593Z,7.80
2019-04-30T06:13:06.364Z,8.00
2019-04-30T06:15:39.137Z,8.30
2019-04-30T06:18:13.469Z,8.50
2019-04-30T06:20:35.739Z,8.60
2019-04-30T06:23:04.374Z,8.80
2019-04-30T06:25:45.720Z,8.90
2019-04-30T06:28:01.342Z,9.00
2019-04-30T06:30:29.905Z,9.00
2019-04-30T06:32:59.317Z,9.10
2019-04-30T06:35:26.608Z,9.30
2019-04-30T06:37:55.320Z,9.40
2019-04-30T06:40:23.693Z,9.60
2019-04-30T06:42:52.063Z,9.70
2019-04-30T06:45:20.404Z,9.80
2019-04-30T06:47:48.994Z,9.90
2019-04-30T06:50:19.218Z,10.10
2019-04-30T06:52:56.628Z,10.40
2019-04-30T06:55:14.744Z,10.60
2019-04-30T06:57:43.244Z,10.80
2019-04-30T07:00:11.610Z,11.00
2019-04-30T07:02:39.917Z,11.10
2019-04-30T07:05:10.036Z,11.10
2019-04-30T07:07:41.125Z,11.20
2019-04-30T07:10:16.976Z,11.50
2019-04-30T07:12:53.511Z,11.40
2019-04-30T07:15:22.067Z,11.80
2019-04-30T07:17:50.380Z,11.80
2019-04-30T07:20:19.302Z,12.00
2019-04-30T07:22:52.539Z,12.10
2019-04-30T07:25:16.379Z,12.50
2019-04-30T07:27:44.761Z,13.10
2019-04-30T07:30:13.241Z,13.50
2019-04-30T07:32:41.578Z,13.90
2019-04-30T07:35:09.919Z,14.50
2019-04-30T07:37:39.134Z,14.60
2019-04-30T07:40:09.159Z,14.40
2019-04-30T07:42:39.731Z,14.30
2019-04-30T07:45:05.821Z,14.20
2019-04-30T07:47:34.777Z,14.60
2019-04-30T07:50:03.191Z,15.20
2019-04-30T07:52:34.393Z,14.70
2019-04-30T07:55:00.615Z,14.40
2019-04-30T07:57:29.144Z,14.40
2019-04-30T07:59:56.914Z,14.50
2019-04-30T08:02:25.496Z,14.40
2019-04-30T08:05:00.341Z,14.60
2019-04-30T08:07:29.750Z,14.50
2019-04-30T08:09:59.009Z,14.80
2019-04-30T08:12:33.655Z,15.20
2019-04-30T08:14:54.611Z,15.10
2019-04-30T08:17:23.173Z,15.30
2019-04-30T08:19:51.510Z,15.30
2019-04-30T08:22:20.355Z,15.60
2019-04-30T08:24:49.163Z,15.80
2019-04-30T08:27:19.153Z,16.00
2019-04-30T08:29:45.796Z,16.20
2019-04-30T08:32:14.342Z,16.00
2019-04-30T08:34:42.663Z,16.10
2019-04-30T08:37:17.006Z,16.50
2019-04-30T08:39:39.842Z,17.20
2019-04-30T08:42:08.999Z,17.40
2019-04-30T08:44:39.508Z,17.00
2019-04-30T08:47:06.377Z,17.00
2019-04-30T08:49:35.726Z,17.10
2019-04-30T08:52:04.172Z,16.60
2019-04-30T08:54:34.656Z,16.80
2019-04-30T08:57:01.060Z,17.70
2019-04-30T08:59:29.627Z,18.90
2019-04-30T09:02:00.046Z,19.20
2019-04-30T09:04:28.960Z,18.90
2019-04-30T09:06:55.634Z,18.90
2019-04-30T09:09:24.171Z,18.60
2019-04-30T09:11:55.640Z,17.50
2019-04-30T09:14:22.749Z,17.50
2019-04-30T09:16:51.343Z,18.20
2019-04-30T09:19:21.211Z,18.80
2019-04-30T09:21:48.886Z,19.10
2019-04-30T09:24:16.496Z,19.00
2019-04-30T09:26:44.830Z,18.60
2019-04-30T09:29:13.616Z,18.80
2019-04-30T09:31:42.003Z,18.90
2019-04-30T09:34:17.194Z,18.90
2019-04-30T09:36:39.668Z,18.70
2019-04-30T09:39:08.939Z,18.10
2019-04-30T09:41:37.039Z,18.00
2019-04-30T09:44:05.896Z,18.70
2019-04-30T09:46:34.721Z,19.40
2019-04-30T09:49:03.114Z,19.90
2019-04-30T09:51:32.351Z,19.90
2019-04-30T09:54:03.191Z,20.30
2019-04-30T09:56:29.442Z,20.00
2019-04-30T09:58:59.275Z,19.70
2019-04-30T10:01:26.451Z,18.80
2019-04-30T10:03:55.134Z,18.00
2019-04-30T10:06:36.049Z,18.10
2019-04-30T10:08:52.186Z,19.00
2019-04-30T10:11:42.149Z,19.80
2019-04-30T10:14:10.480Z,20.00
2019-04-30T10:16:43.508Z,20.00
2019-04-30T10:19:14.889Z,20.50
2019-04-30T10:21:40.432Z,20.10
2019-04-30T10:24:15.327Z,19.70
2019-04-30T10:26:37.941Z,19.10
2019-04-30T10:29:06.299Z,19.30
2019-04-30T10:31:35.166Z,20.00
2019-04-30T10:34:03.502Z,21.10
2019-04-30T10:36:31.933Z,22.10
2019-04-30T10:39:00.638Z,22.70
2019-04-30T10:41:29.458Z,21.20
2019-04-30T10:43:59.145Z,20.80
2019-04-30T10:46:26.806Z,20.20
2019-04-30T10:48:55.330Z,20.00
2019-04-30T10:51:23.691Z,19.80
2019-04-30T10:53:52.410Z,20.40
2019-04-30T10:56:20.740Z,20.10
2019-04-30T10:58:49.121Z,19.50
2019-04-30T11:01:19.274Z,19.40
2019-04-30T11:03:46.501Z,19.90
2019-04-30T11:06:15.015Z,19.70
2019-04-30T11:08:43.738Z,18.60
2019-04-30T11:11:12.273Z,18.00
2019-04-30T11:13:40.593Z,17.50
2019-04-30T11:16:13.241Z,17.40
2019-04-30T11:18:38.257Z,17.30
2019-04-30T11:21:06.640Z,16.90
2019-04-30T11:23:35.386Z,16.60
2019-04-30T11:26:04.136Z,16.10
2019-04-30T11:28:32.430Z,15.80
2019-04-30T11:31:10.117Z,15.60
2019-04-30T11:33:38.696Z,15.30
2019-04-30T11:36:06.846Z,14.80
2019-04-30T11:38:35.636Z,14.10
2019-04-30T11:41:03.999Z,13.70
2019-04-30T11:43:32.397Z,13.40
2019-04-30T11:46:11.213Z,13.20
2019-04-30T11:48:39.600Z,13.00
2019-04-30T11:51:09.475Z,12.80
2019-04-30T11:53:38.982Z,12.60
2019-04-30T11:56:05.951Z,12.60
2019-04-30T11:58:34.706Z,12.60
2019-04-30T12:01:03.630Z,12.50
2019-04-30T12:03:32.280Z,12.60
2019-04-30T12:06:00.671Z,12.50
2019-04-30T12:08:31.079Z,12.70
2019-04-30T12:11:05.261Z,12.70
2019-04-30T12:13:34.284Z,12.90
2019-04-30T12:16:02.625Z,13.00
2019-04-30T12:18:30.961Z,13.50
2019-04-30T12:20:59.867Z,13.70
2019-04-30T12:23:28.246Z,13.90
2019-04-30T12:25:56.572Z,14.00
2019-04-30T12:28:27.323Z,13.70
2019-04-30T12:30:54.128Z,13.50
2019-04-30T12:33:22.468Z,13.40
2019-04-30T12:35:51.458Z,13.50
2019-04-30T12:38:20.728Z,13.60
2019-04-30T12:40:49.287Z,13.60
2019-04-30T12:43:17.959Z,13.60
2019-04-30T12:45:46.407Z,13.50
2019-04-30T12:48:25.891Z,13.50
2019-04-30T12:51:05.387Z,13.40
2019-04-30T12:53:38.114Z,13.50
2019-04-30T12:57:11.990Z,13.60
2019-04-30T12:59:40.613Z,13.60
2019-04-30T13:02:09.185Z,13.70
2019-04-30T13:04:39.214Z,13.70
2019-04-30T13:07:06.798Z,13.80
2019-04-30T13:09:35.170Z,13.90
2019-04-30T13:12:03.991Z,13.90
2019-04-30T13:14:33.523Z,14.00
2019-04-30T13:17:00.726Z,13.90
2019-04-30T13:19:29.625Z,14.10
2019-04-30T13:21:58.722Z,14.60
2019-04-30T13:24:26.693Z,14.60
2019-04-30T13:26:54.993Z,14.50
2019-04-30T13:29:27.671Z,14.30
2019-04-30T13:31:55.966Z,14.20
2019-04-30T13:35:01.240Z,14.10
2019-04-30T13:37:33.986Z,14.00
2019-04-30T13:40:07.417Z,14.00
2019-04-30T13:42:39.445Z,13.60
2019-04-30T13:45:07.990Z,13.20
2019-04-30T13:47:36.342Z,13.00
2019-04-30T13:50:05.104Z,12.90
2019-04-30T13:52:33.516Z,13.00
2019-04-30T13:55:02.070Z,12.90
2019-04-30T13:57:30.606Z,12.70
2019-04-30T13:59:58.923Z,12.60
2019-04-30T14:02:29.433Z,12.70
2019-04-30T14:05:03.096Z,12.60
2019-04-30T14:07:42.952Z,12.50
2019-04-30T14:10:11.313Z,12.50
2019-04-30T14:12:43.287Z,12.50
2019-04-30T14:15:12.558Z,12.40
2019-04-30T14:17:40.958Z,12.50
2019-04-30T14:20:09.472Z,12.70
2019-04-30T14:22:38.319Z,12.80
2019-04-30T14:25:06.831Z,12.90
2019-04-30T14:27:35.160Z,13.10
2019-04-30T14:30:04.376Z,13.10
2019-04-30T14:32:32.721Z,13.10
2019-04-30T14:35:01.054Z,13.40
2019-04-30T14:37:31.824Z,13.60
2019-04-30T14:39:59.473Z,13.90
2019-04-30T14:42:27.881Z,14.10
2019-04-30T14:45:00.598Z,14.40
2019-04-30T14:47:33.428Z,14.50
2019-04-30T14:50:09.920Z,14.40
2019-04-30T14:52:41.195Z,14.50
2019-04-30T14:55:19.740Z,14.50
2019-04-30T14:57:53.292Z,14.20
2019-04-30T15:01:29.208Z,14.10
2019-04-30T15:03:56.226Z,14.10
2019-04-30T15:06:24.795Z,13.80
2019-04-30T15:08:53.256Z,14.00
2019-04-30T15:11:21.660Z,13.80
2019-04-30T15:13:49.958Z,13.70
2019-04-30T15:16:18.699Z,13.60
2019-04-30T15:18:47.035Z,13.00
2019-04-30T15:21:15.677Z,12.40
2019-04-30T15:23:58.729Z,12.10
2019-04-30T15:26:25.016Z,12.00
2019-04-30T15:28:50.982Z,11.90
2019-04-30T15:31:20.330Z,11.90
2019-04-30T15:34:02.200Z,12.00
2019-04-30T15:36:21.556Z,12.00
2019-04-30T15:39:03.483Z,12.10
2019-04-30T15:41:32.270Z,12.10
2019-04-30T15:44:00.657Z,12.30
2019-04-30T15:46:29.184Z,12.40
2019-04-30T15:48:57.887Z,12.40
2019-04-30T15:51:26.240Z,12.30
2019-04-30T15:53:54.518Z,12.40
2019-04-30T15:56:34.453Z,12.50
2019-04-30T15:58:58.821Z,12.50
2019-04-30T16:01:25.746Z,12.40
2019-04-30T16:03:54.401Z,12.50
2019-04-30T16:06:22.805Z,12.50
2019-04-30T16:08:54.872Z,12.50
2019-04-30T16:11:45.723Z,12.50
2019-04-30T16:14:29.589Z,12.50
2019-04-30T16:17:03.921Z,12.50
2019-04-30T16:19:32.616Z,12.50
2019-04-30T16:22:00.940Z,12.50
2019-04-30T16:24:29.354Z,12.60
2019-04-30T16:26:59.351Z,12.70
2019-04-30T16:29:26.305Z,12.70
2019-04-30T16:31:55.076Z,12.50
2019-04-30T16:34:23.383Z,12.50
2019-04-30T16:36:51.831Z,12.50
2019-04-30T16:39:20.157Z,12.50
2019-04-30T16:41:49.516Z,12.60
2019-04-30T16:44:16.984Z,12.50
2019-04-30T16:46:45.731Z,12.50
2019-04-30T16:49:14.290Z,12.60
2019-04-30T16:51:42.886Z,12.50
2019-04-30T16:54:11.476Z,12.50
2019-04-30T16:56:39.818Z,12.50
2019-04-30T16:59:08.483Z,12.40
2019-04-30T17:01:37.303Z,12.40
2019-04-30T17:04:10.996Z,12.40
2019-04-30T17:06:40.920Z,12.30
2019-04-30T17:09:13.912Z,12.30
2019-04-30T17:11:49.005Z,12.30
2019-04-30T17:14:16.786Z,12.30
2019-04-30T17:16:45.142Z,12.10
2019-04-30T17:19:13.498Z,12.10
2019-04-30T17:21:41.938Z,12.10
2019-04-30T17:24:10.335Z,12.00
2019-04-30T17:26:39.237Z,11.90
2019-04-30T17:29:07.181Z,11.90
2019-04-30T17:31:35.595Z,11.90
2019-04-30T17:34:04.298Z,11.90
2019-04-30T17:36:32.598Z,11.90
2019-04-30T17:39:00.937Z,11.90
2019-04-30T17:41:29.419Z,11.90
2019-04-30T17:43:58.991Z,11.80
2019-04-30T17:46:28.471Z,11.70
2019-04-30T17:48:55.321Z,11.70
2019-04-30T17:51:23.780Z,11.70
2019-04-30T17:53:58.761Z,11.60
2019-04-30T17:56:26.186Z,11.50
2019-04-30T17:58:54.669Z,11.30
2019-04-30T18:01:23.507Z,11.20
2019-04-30T18:03:51.852Z,11.20
2019-04-30T18:06:20.335Z,11.10
2019-04-30T18:08:49.099Z,11.00
2019-04-30T18:11:19.913Z,10.80
2019-04-30T18:13:45.846Z,10.70
2019-04-30T18:16:14.399Z,10.60
2019-04-30T18:19:02.269Z,10.50
2019-04-30T18:21:38.358Z,10.30
2019-04-30T18:24:14.861Z,10.20
2019-04-30T18:26:48.600Z,10.10
2019-04-30T18:29:16.939Z,10.00
2019-04-30T18:31:45.275Z,10.00
2019-04-30T18:34:14.039Z,9.90
2019-04-30T18:36:42.531Z,9.80
2019-04-30T18:39:11.171Z,9.70
2019-04-30T18:41:40.046Z,9.60
2019-04-30T18:44:09.482Z,9.50
2019-04-30T18:46:36.856Z,9.30
2019-04-30T18:49:05.398Z,9.20
2019-04-30T18:51:39.518Z,9.10
2019-04-30T18:54:02.224Z,9.00
2019-04-30T18:56:30.976Z,9.00
2019-04-30T18:58:59.428Z,9.00
2019-04-30T19:01:27.801Z,8.90
2019-04-30T19:03:58.457Z,8.80
2019-04-30T19:06:26.193Z,8.70
2019-04-30T19:09:00.209Z,8.70
2019-04-30T19:11:34.472Z,8.60
2019-04-30T19:14:09.394Z,8.50
2019-04-30T19:17:49.726Z,8.40
2019-04-30T19:20:25.157Z,8.30
2019-04-30T19:22:53.536Z,8.20
2019-04-30T19:25:21.870Z,8.10
2019-04-30T19:27:50.568Z,8.00
2019-04-30T19:30:19.387Z,8.00
2019-04-30T19:32:49.004Z,7.90
2019-04-30T19:35:16.043Z,7.90
2019-04-30T19:37:44.362Z,7.90
2019-04-30T19:40:12.925Z,7.90
2019-04-30T19:42:41.917Z,7.80
2019-04-30T19:45:12.484Z,7.70
2019-04-30T19:47:39.145Z,7.60
2019-04-30T19:50:09.389Z,7.60
2019-04-30T19:52:36.367Z,7.50
2019-04-30T19:55:05.022Z,7.40
2019-04-30T19:57:34.026Z,7.40
2019-04-30T20:00:02.593Z,7.40
2019-04-30T20:02:30.924Z,7.40
2019-04-30T20:05:01.253Z,7.40
2019-04-30T20:07:29.134Z,7.40
2019-04-30T20:10:01.124Z,7.30
2019-04-30T20:12:25.459Z,7.20
2019-04-30T20:14:53.769Z,7.10
2019-04-30T20:17:22.056Z,7.10
2019-04-30T20:19:50.967Z,7.20
2019-04-30T20:22:19.837Z,7.20
2019-04-30T20:24:49.157Z,7.10
2019-04-30T20:27:16.169Z,7.10
2019-04-30T20:29:44.740Z,7.10
2019-04-30T20:32:13.100Z,7.20
2019-04-30T20:34:41.697Z,7.20
2019-04-30T20:37:10.184Z,7.20
2019-04-30T20:39:42.880Z,7.10
2019-04-30T20:42:11.237Z,7.10
2019-04-30T20:44:39.588Z,7.00
2019-04-30T20:47:08.947Z,6.90
2019-04-30T20:49:36.372Z,6.80
2019-04-30T20:52:04.942Z,6.80
2019-04-30T20:54:33.358Z,6.80
2019-04-30T20:57:01.985Z,6.70
2019-04-30T20:59:30.528Z,6.70
2019-04-30T21:01:59.071Z,6.70
2019-04-30T21:04:27.404Z,6.70
2019-04-30T21:06:55.705Z,6.60
2019-04-30T21:09:24.596Z,6.70
2019-04-30T21:11:52.942Z,6.70
2019-04-30T21:14:21.716Z,6.60
2019-04-30T21:16:50.400Z,6.70
2019-04-30T21:19:18.825Z,6.70
2019-04-30T21:21:47.308Z,6.70
2019-04-30T21:24:15.661Z,6.70
2019-04-30T21:26:44.218Z,6.70
2019-04-30T21:29:15.700Z,6.80
2019-04-30T21:31:54.963Z,6.80
2019-04-30T21:36:31.455Z,6.70
2019-04-30T21:39:00.038Z,6.80
2019-04-30T21:41:29.676Z,6.90
2019-04-30T21:43:57.004Z,6.80
2019-04-30T21:46:25.554Z,6.70
2019-04-30T21:48:53.879Z,6.60
2019-04-30T21:51:22.192Z,6.50
2019-04-30T21:53:50.502Z,6.40
2019-04-30T21:56:18.830Z,6.30
2019-04-30T21:58:47.545Z,6.20
2019-04-30T22:01:19.761Z,6.10
2019-04-30T22:03:48.230Z,6.00
2019-04-30T22:06:16.674Z,5.90
2019-04-30T22:08:46.028Z,5.90
2019-04-30T22:11:14.550Z,5.80
2019-04-30T22:13:43.241Z,5.80
2019-04-30T22:16:12.077Z,5.80
2019-04-30T22:18:40.371Z,6.10
2019-04-30T22:21:09.416Z,6.20
2019-04-30T22:23:38.131Z,6.20
2019-04-30T22:26:06.504Z,6.30
2019-04-30T22:28:34.883Z,6.20
2019-04-30T22:31:03.877Z,6.10
2019-04-30T22:33:32.778Z,6.20
2019-04-30T22:36:08.748Z,6.10
2019-04-30T22:38:39.167Z,6.00
2019-04-30T22:41:08.874Z,5.90
2019-04-30T22:43:36.212Z,5.80
2019-04-30T22:46:09.768Z,5.80
2019-04-30T22:48:36.615Z,5.70
2019-04-30T22:51:05.196Z,5.60
2019-04-30T22:53:33.717Z,5.60
2019-04-30T22:56:02.175Z,5.50
2019-04-30T22:58:31.083Z,5.50
2019-04-30T23:01:05.482Z,5.40
2019-04-30T23:03:33.990Z,5.50
2019-04-30T23:06:02.388Z,5.50
2019-04-30T23:08:30.842Z,5.40
2019-04-30T23:11:00.039Z,5.30
2019-04-30T23:13:28.618Z,5.20
2019-04-30T23:15:56.927Z,5.20
2019-04-30T23:18:25.785Z,5.10
2019-04-30T23:20:54.403Z,5.10
2019-04-30T23:23:22.794Z,5.10
2019-04-30T23:25:51.438Z,5.10
2019-04-30T23:28:19.884Z,5.10
2019-04-30T23:30:48.276Z,5.00
2019-04-30T23:33:17.126Z,5.00
2019-04-30T23:35:45.737Z,5.00
2019-04-30T23:38:14.213Z,5.00
2019-04-30T23:40:47.253Z,5.00
2019-04-30T23:43:15.630Z,5.00
2019-04-30T23:45:44.082Z,5.20
2019-04-30T23:48:13.076Z,5.40
2019-04-30T23:50:41.760Z,5.60
2019-04-30T23:53:10.334Z,5.80
2019-04-30T23:58:13.912Z,5.80
